Grand Ridge, Florida
Current Conditions -  °F | °C
As of 4:53 PM on Thursday 20 Nov 2014 (Local Time) from KMAI Reporting Station
Clear Clear  
Wind Chill: 58°   Ceiling: Unl
Heat Index: 58°   Visibility: 10mi
Dew Point: 43°   Wind: 0mph
Humidity: 58%   Direction: NA
Pressure: 30.23"   Gusts: NA
Location:  30.71°N, 85.02°W
Report Text: KMAI 202253Z AUTO 00000KT 10SM CLR 14/06 A3023 RMK AO2 RAB30E38 SLP237 P0000 T01440061 $
Loading
Personal Weather Stations






























Interactive Weather Map New forecast layout! Learn more

10-Day Weather Forecast

Advertisements
Track Severe Weather on mobile